Time;durP1;ratioP1;P1;durP2;ratioP2;P2;SDS_P1;SDS_P2;PMS_P1;PMS_P2;Temp;Humidity;BMP_temperature;BMP_pressure;BME280_temperature;BME280_humidity;BME280_pressure;Samples;Min_cycle;Max_cycle;Signal;HPM_P1;HPM_P2
2021/04/21 00:01:18;;;;;;;8.13;5.90;;;;;;;9.58;64.27;98924.56;6248133;22;20010;-78
2021/04/21 00:03:44;;;;;;;9.70;6.63;;;;;;;9.55;64.36;98920.56;6248437;22;20067;-80
2021/04/21 00:06:13;;;;;;;9.07;5.80;;;;;;;9.52;64.52;98929.13;6248132;22;20007;-80
2021/04/21 00:08:38;;;;;;;;;;;;;;;9.50;64.55;98923.25;6248698;22;20000;-79
2021/04/21 00:11:05;;;;;;;8.48;5.82;;;;;;;9.45;64.59;98920.59;6248195;22;19968;-78
2021/04/21 00:13:32;;;;;;;7.80;5.60;;;;;;;9.42;64.70;98919.28;6248036;22;20025;-79
2021/04/21 00:15:58;;;;;;;10.93;6.40;;;;;;;9.42;64.84;98919.28;6273784;22;20003;-79
2021/04/21 00:18:25;;;;;;;7.50;5.75;;;;;;;9.41;64.89;98919.53;6273333;22;20004;-78
2021/04/21 00:21:00;;;;;;;8.63;5.28;;;;;;;9.37;64.86;98927.28;6275371;22;20003;-79
2021/04/21 00:23:27;;;;;;;8.27;6.20;;;;;;;9.34;64.48;98925.16;6247653;22;20003;-81
2021/04/21 00:25:56;;;;;;;9.67;6.47;;;;;;;9.32;64.62;98923.84;6247942;22;20000;-79
2021/04/21 00:28:24;;;;;;;8.63;5.85;;;;;;;9.34;64.84;98927.03;6247975;22;20233;-79
2021/04/21 00:30:54;;;;;;;9.85;7.03;;;;;;;9.30;65.11;98932.09;6247996;22;20077;-79
2021/04/21 00:33:22;;;;;;;8.95;5.68;;;;;;;9.26;65.05;98936.38;6247891;22;20000;-79
2021/04/21 00:35:50;;;;;;;8.30;6.38;;;;;;;9.23;65.71;98936.94;6248126;22;19996;-79
2021/04/21 00:38:18;;;;;;;7.65;5.60;;;;;;;9.21;65.61;98929.19;6247500;22;20019;-79
2021/04/21 00:40:43;;;;;;;10.70;6.40;;;;;;;9.23;65.40;98931.59;6273323;22;20018;-78
2021/04/21 00:43:23;;;;;;;5.97;4.95;;;;;;;9.19;65.23;98923.34;6248074;22;20094;-78
2021/04/21 00:46:18;;;;;;;7.65;5.82;;;;;;;9.22;64.84;98930.00;6273663;22;20011;-78
2021/04/21 00:49:08;;;;;;;8.63;5.82;;;;;;;9.23;65.25;98931.59;6273277;22;20004;-80
2021/04/21 00:51:54;;;;;;;7.90;5.85;;;;;;;9.24;64.96;98936.66;6273316;22;20328;-79
2021/04/21 00:54:33;;;;;;;8.55;5.68;;;;;;;9.24;65.28;98938.50;6245836;22;20436;-78
2021/04/21 00:57:17;;;;;;;7.50;5.60;;;;;;;9.26;64.80;98939.06;6245721;22;20018;-77
2021/04/21 00:59:59;;;;;;;6.75;6.03;;;;;;;9.27;64.97;98938.78;6273476;22;20046;-78
2021/04/21 01:02:27;;;;;;;7.00;5.60;;;;;;;9.28;64.54;98939.59;6274798;22;20007;-82
2021/04/21 01:04:54;;;;;;;6.85;5.45;;;;;;;9.28;64.93;98940.38;6247907;22;20079;-80
2021/04/21 01:07:21;;;;;;;10.20;5.95;;;;;;;9.32;64.54;98939.84;6247502;22;20086;-80
2021/04/21 01:09:51;;;;;;;8.90;6.28;;;;;;;9.31;65.06;98933.69;6273015;22;20003;-81
2021/04/21 01:12:20;;;;;;;7.50;5.43;;;;;;;9.33;65.22;98936.13;6247281;22;19995;-81
2021/04/21 01:14:49;;;;;;;7.68;5.70;;;;;;;9.35;64.89;98939.31;6247657;22;20012;-80
2021/04/21 01:17:17;;;;;;;8.18;5.85;;;;;;;9.36;64.44;98939.06;6272894;22;20008;-79
2021/04/21 01:19:48;;;;;;;8.18;6.00;;;;;;;9.33;64.52;98923.56;6247806;22;20553;-78
2021/04/21 01:22:22;;;;;;;7.75;6.00;;;;;;;9.37;64.76;98947.84;6272927;22;20007;-78
2021/04/21 01:24:54;;;;;;;8.20;5.57;;;;;;;9.37;64.88;98937.97;6272644;22;19999;-79
2021/04/21 01:27:22;;;;;;;8.60;6.35;;;;;;;9.35;65.15;98937.44;6272568;22;20061;-80
2021/04/21 01:29:52;;;;;;;12.82;8.23;;;;;;;9.32;65.44;98942.53;6247592;22;20432;-80
2021/04/21 01:32:23;;;;;;;13.30;8.82;;;;;;;9.27;65.91;98946.78;6247574;22;20078;-80
2021/04/21 01:34:51;;;;;;;16.38;9.45;;;;;;;9.25;65.64;98943.59;6248178;22;20000;-80
2021/04/21 01:37:20;;;;;;;9.68;7.22;;;;;;;9.23;65.46;98940.41;6274386;22;19991;-79
2021/04/21 01:40:00;;;;;;;10.88;7.80;;;;;;;9.23;65.64;98939.63;6272572;22;20061;-78
2021/04/21 01:42:28;;;;;;;12.55;7.10;;;;;;;9.23;65.43;98934.28;6246433;22;20022;-81
2021/04/21 01:44:56;;;;;;;8.65;6.88;;;;;;;9.24;65.41;98933.19;6247504;22;20007;-79
2021/04/21 01:47:22;;;;;;;10.05;7.15;;;;;;;9.24;64.98;98934.00;6247021;22;20429;-81
2021/04/21 01:49:58;;;;;;;10.48;7.30;;;;;;;9.26;65.15;98937.19;6247492;22;20298;-81
2021/04/21 01:52:37;;;;;;;10.70;6.97;;;;;;;9.26;64.79;98929.19;6246829;22;20087;-82
2021/04/21 01:55:16;;;;;;;10.73;6.82;;;;;;;9.29;64.88;98938.53;6248091;22;20085;-79
2021/04/21 01:57:47;;;;;;;9.13;6.20;;;;;;;9.29;64.52;98944.66;6274622;22;20073;-77
2021/04/21 02:00:35;;;;;;;8.25;6.22;;;;;;;9.32;64.86;98943.31;6247565;22;20074;-79
2021/04/21 02:03:17;;;;;;;10.83;7.33;;;;;;;9.35;65.03;98947.31;6247614;22;20420;-79
2021/04/21 02:06:22;;;;;;;12.88;7.22;;;;;;;9.34;65.00;98948.38;6247322;22;20007;-80
2021/04/21 02:09:10;;;;;;;8.50;5.95;;;;;;;9.38;64.93;98952.91;6247059;22;20452;-78
2021/04/21 02:11:38;;;;;;;8.75;6.80;;;;;;;9.37;65.31;98950.50;6246663;22;20322;-78
2021/04/21 02:14:04;;;;;;;8.50;6.70;;;;;;;9.41;65.33;98959.56;6274226;22;20007;-78
2021/04/21 02:16:35;;;;;;;10.63;7.32;;;;;;;9.38;65.21;98955.56;6272483;22;20000;-79
2021/04/21 02:19:00;;;;;;;9.43;6.75;;;;;;;9.37;65.98;98956.63;6272548;22;20008;-79
2021/04/21 02:21:35;;;;;;;10.40;7.05;;;;;;;9.33;65.74;98952.13;6272427;22;20027;-78
2021/04/21 02:24:20;;;;;;;9.68;6.95;;;;;;;9.34;66.26;98959.88;6272311;22;19999;-78
2021/04/21 02:26:55;;;;;;;12.55;8.15;;;;;;;9.33;66.10;98957.47;6272590;22;20003;-78
2021/04/21 02:29:35;;;;;;;10.10;6.47;;;;;;;9.31;65.55;98951.59;6247080;22;20011;-82
2021/04/21 02:32:34;;;;;;;10.82;6.93;;;;;;;9.28;65.23;98952.94;6273304;22;20000;-81
2021/04/21 02:38:53;;;;;;;12.65;7.80;;;;;;;9.23;65.74;98952.94;6275368;22;20034;-82
2021/04/21 02:41:37;;;;;;;11.23;8.45;;;;;;;9.20;65.38;98961.47;6272914;22;20011;-80
2021/04/21 02:44:32;;;;;;;14.50;9.50;;;;;;;9.20;65.27;98964.94;6247129;22;20003;-76
2021/04/21 02:47:10;;;;;;;15.43;10.52;;;;;;;9.20;65.00;98964.94;6272490;22;20075;-76
2021/04/21 02:49:38;;;;;;;15.57;10.93;;;;;;;9.19;65.37;98963.38;6274072;22;19996;-77
2021/04/21 02:52:05;;;;;;;17.40;10.90;;;;;;;9.22;64.83;98962.03;6274138;22;20003;-76
2021/04/21 02:54:51;;;;;;;14.90;9.80;;;;;;;9.23;64.91;98963.63;6273391;22;20000;-77
2021/04/21 02:57:31;;;;;;;16.60;9.50;;;;;;;9.25;64.80;98964.13;6273692;22;20100;-78
2021/04/21 03:00:04;;;;;;;17.02;10.52;;;;;;;9.27;64.74;98965.47;6272393;22;20000;-78
2021/04/21 03:02:41;;;;;;;13.18;8.18;;;;;;;9.28;64.97;98967.06;6274235;22;20079;-78
2021/04/21 03:05:26;;;;;;;13.68;8.93;;;;;;;9.29;65.43;98968.66;6272169;22;19996;-77
2021/04/21 03:08:08;;;;;;;14.27;9.55;;;;;;;9.28;65.59;98968.94;6246804;22;20324;-77
2021/04/21 03:10:57;;;;;;;12.88;8.63;;;;;;;9.27;65.76;98965.47;6271900;22;20004;-76
2021/04/21 03:13:28;;;;;;;14.65;9.25;;;;;;;9.25;65.60;98964.94;6272193;22;20006;-77
2021/04/21 03:15:58;;;;;;;20.00;9.52;;;;;;;9.25;65.16;98972.97;6273568;22;20000;-76
2021/04/21 03:18:28;;;;;;;15.80;8.90;;;;;;;9.21;65.66;98971.09;6273294;22;20006;-76
2021/04/21 03:21:01;;;;;;;12.85;8.50;;;;;;;9.22;65.40;98978.03;6272135;22;20003;-76
2021/04/21 03:23:28;;;;;;;15.60;10.13;;;;;;;9.20;65.51;98982.81;6273460;22;20070;-79
2021/04/21 03:25:57;;;;;;;14.07;9.00;;;;;;;9.16;65.62;98974.56;6246532;22;20011;-79
2021/04/21 03:28:26;;;;;;;13.68;8.90;;;;;;;9.13;65.87;98983.91;6246039;22;20095;-83
2021/04/21 03:30:58;;;;;;;14.48;9.27;;;;;;;9.07;66.10;98981.50;6246578;22;19996;-79
2021/04/21 03:33:35;;;;;;;18.15;9.52;;;;;;;9.09;66.11;98990.03;6246390;22;20082;-80
2021/04/21 03:36:03;;;;;;;13.40;9.10;;;;;;;9.05;66.55;98984.44;6246355;22;19999;-79
2021/04/21 03:38:28;;;;;;;18.08;9.80;;;;;;;9.04;66.57;98988.16;6246663;22;20093;-79
2021/04/21 03:40:55;;;;;;;14.93;10.55;;;;;;;9.04;66.82;98995.38;6245957;22;20011;-78
2021/04/21 03:43:20;;;;;;;23.45;11.88;;;;;;;9.09;66.97;99000.69;6246775;22;20004;-79
2021/04/21 03:45:49;;;;;;;16.83;10.45;;;;;;;9.20;67.23;98998.84;6246545;22;20003;-78
2021/04/21 03:48:15;;;;;;;;;;;;;;;9.33;66.63;99000.19;6246602;22;20046;-80
2021/04/21 03:50:41;;;;;;;16.30;11.38;;;;;;;9.36;66.15;99004.97;6246558;22;19907;-79
2021/04/21 03:53:09;;;;;;;14.13;10.38;;;;;;;9.41;66.26;98997.75;6248382;22;20003;-79
2021/04/21 03:55:36;;;;;;;13.73;9.15;;;;;;;9.58;65.59;99007.31;6247844;22;20010;-82
2021/04/21 03:58:05;;;;;;;10.48;8.63;;;;;;;9.64;65.05;99000.91;6248261;22;20003;-80
2021/04/21 04:00:34;;;;;;;14.07;9.32;;;;;;;9.78;64.67;99012.63;6248080;22;20002;-86
2021/04/21 04:03:03;;;;;;;19.17;9.52;;;;;;;9.85;64.27;99007.00;6248082;22;20075;-82
2021/04/21 04:05:38;;;;;;;14.68;8.65;;;;;;;10.01;64.34;99013.09;6247762;22;20003;-81
2021/04/21 04:08:08;;;;;;;14.00;8.35;;;;;;;10.24;64.30;99009.00;6248221;22;20369;-77
2021/04/21 04:10:36;;;;;;;11.88;9.13;;;;;;;10.49;63.60;99014.53;6247700;22;20008;-77
2021/04/21 04:13:10;;;;;;;20.45;11.90;;;;;;;10.79;62.96;99012.72;6273294;22;20079;-77
2021/04/21 04:15:36;;;;;;;16.05;10.93;;;;;;;11.13;62.67;99010.09;6275016;22;20429;-76
2021/04/21 04:18:04;;;;;;;25.33;15.30;;;;;;;11.57;61.44;99027.09;6247575;22;20003;-75
2021/04/21 04:20:32;;;;;;;28.95;17.05;;;;;;;11.99;60.23;99020.25;6274657;22;20000;-77
2021/04/21 04:23:05;;;;;;;19.25;13.57;;;;;;;12.43;58.53;99026.41;6273443;22;20027;-74
2021/04/21 04:25:33;;;;;;;16.52;10.65;;;;;;;12.88;58.66;99027.97;6274508;22;20416;-75
2021/04/21 04:27:59;;;;;;;17.77;10.60;;;;;;;13.35;56.25;99020.72;6275292;22;20000;-75
2021/04/21 04:30:26;;;;;;;16.15;11.10;;;;;;;13.71;54.76;99025.53;6274765;22;20313;-75
2021/04/21 04:32:52;;;;;;;13.60;9.20;;;;;;;14.05;53.83;99031.63;6275008;22;20072;-75
2021/04/21 04:35:17;;;;;;;13.07;9.65;;;;;;;14.49;53.20;99027.47;6274799;22;20004;-75
2021/04/21 04:37:43;;;;;;;13.85;9.80;;;;;;;14.95;51.63;99033.75;6274286;22;20340;-75
2021/04/21 04:40:14;;;;;;;18.48;9.82;;;;;;;15.43;50.03;99032.34;6274864;22;20419;-75
2021/04/21 04:42:41;;;;;;;14.23;9.73;;;;;;;15.85;49.13;99026.69;6274541;22;20019;-75
2021/04/21 04:45:08;;;;;;;13.52;10.05;;;;;;;16.31;48.28;99032.72;6274649;22;20451;-75
2021/04/21 04:47:45;;;;;;;17.85;12.07;;;;;;;16.85;47.28;99042.44;6274630;22;20379;-75
2021/04/21 04:50:16;;;;;;;15.73;11.20;;;;;;;17.18;44.40;99028.47;6274783;22;20054;-75
2021/04/21 04:52:44;;;;;;;15.57;11.52;;;;;;;17.56;44.97;99031.22;6274042;22;20029;-76
2021/04/21 04:55:13;;;;;;;18.83;11.48;;;;;;;17.90;43.34;99034.16;6274721;22;20126;-75
2021/04/21 04:57:41;;;;;;;16.20;11.18;;;;;;;18.24;42.95;99046.72;6247395;22;20429;-75
2021/04/21 05:00:09;;;;;;;11.68;8.48;;;;;;;18.52;41.30;99048.97;6274954;22;19995;-75
2021/04/21 05:02:41;;;;;;;12.98;9.93;;;;;;;18.87;40.98;99056.03;6274179;22;20000;-75
2021/04/21 05:05:09;;;;;;;22.48;13.18;;;;;;;19.22;40.42;99055.75;6274751;22;20071;-75
2021/04/21 05:07:37;;;;;;;17.83;12.98;;;;;;;19.56;40.02;99053.81;6247408;22;20004;-74
2021/04/21 05:10:07;;;;;;;17.73;12.07;;;;;;;19.90;39.23;99045.66;6247584;22;20309;-75
2021/04/21 05:12:37;;;;;;;16.83;12.00;;;;;;;20.23;38.30;99048.25;6273985;22;19996;-75
2021/04/21 05:15:04;;;;;;;17.60;11.95;;;;;;;20.52;37.75;99046.41;6274616;22;20421;-75
2021/04/21 05:17:32;;;;;;;14.88;11.57;;;;;;;20.82;37.08;99051.56;6247145;22;20019;-75
2021/04/21 05:20:19;;;;;;;22.05;13.80;;;;;;;21.04;36.33;99054.91;6274207;22;19995;-74
2021/04/21 05:23:12;;;;;;;20.02;13.95;;;;;;;21.18;36.19;99062.66;6274318;22;20007;-75
2021/04/21 05:26:15;;;;;;;18.77;13.10;;;;;;;21.41;35.58;99060.16;6274294;22;20047;-75
2021/04/21 05:28:52;;;;;;;16.15;13.48;;;;;;;21.47;35.62;99055.25;6274266;22;20054;-75
2021/04/21 05:31:36;;;;;;;21.53;13.57;;;;;;;21.60;35.68;99059.50;6274678;22;20023;-76
2021/04/21 05:34:23;;;;;;;20.00;13.27;;;;;;;21.73;35.27;99068.41;6274389;22;20218;-76
2021/04/21 05:37:03;;;;;;;25.10;15.53;;;;;;;21.79;35.43;99072.44;6274299;22;20007;-76
2021/04/21 05:39:32;;;;;;;23.50;15.45;;;;;;;21.82;34.58;99069.00;6246961;22;20014;-76
2021/04/21 05:42:15;;;;;;;24.77;14.90;;;;;;;21.80;34.60;99071.31;6274454;22;20012;-75
2021/04/21 05:45:17;;;;;;;19.40;12.52;;;;;;;21.64;34.53;99063.13;6273777;22;20000;-76
2021/04/21 05:48:40;;;;;;;18.92;13.75;;;;;;;21.61;34.90;99071.22;6274238;22;20095;-75
2021/04/21 05:51:42;;;;;;;19.25;13.60;;;;;;;21.59;34.81;99066.09;6210287;23;20033;-75
2021/04/21 05:54:20;;;;;;;24.48;16.20;;;;;;;21.48;34.27;99068.50;6210241;23;20004;-76
2021/04/21 05:57:09;;;;;;;20.48;14.80;;;;;;;21.40;34.46;99064.81;6260681;22;20053;-75
2021/04/21 05:59:59;;;;;;;22.85;15.13;;;;;;;21.23;34.50;99073.28;6274078;22;20056;-75
2021/04/21 06:02:28;;;;;;;19.65;14.88;;;;;;;21.02;35.52;99070.75;6274389;22;19999;-75
2021/04/21 06:05:07;;;;;;;20.05;14.30;;;;;;;20.90;35.57;99072.38;6274339;22;19999;-75
2021/04/21 06:07:33;;;;;;;21.45;15.98;;;;;;;20.81;35.86;99076.38;6274320;22;20019;-75
2021/04/21 06:09:58;;;;;;;26.50;17.10;;;;;;;20.78;35.92;99075.91;6273964;22;20340;-75
2021/04/21 06:12:24;;;;;;;19.42;14.63;;;;;;;20.82;36.37;99069.81;6274229;22;20000;-75
2021/04/21 06:14:54;;;;;;;27.02;16.75;;;;;;;20.84;36.31;99087.34;6273863;22;20000;-75
2021/04/21 06:17:26;;;;;;;19.00;15.02;;;;;;;20.77;36.61;99082.47;6272641;22;20004;-74
2021/04/21 06:19:53;;;;;;;19.38;13.45;;;;;;;20.86;36.23;99078.84;6273872;22;20026;-75
2021/04/21 06:22:29;;;;;;;19.30;12.52;;;;;;;20.91;35.73;99081.31;6273886;22;20086;-75
2021/04/21 06:25:15;;;;;;;15.40;11.00;;;;;;;20.77;35.54;99079.75;6274105;22;20026;-74
2021/04/21 06:27:41;;;;;;;16.02;11.85;;;;;;;20.84;36.07;99076.47;6273983;22;20375;-74
2021/04/21 06:30:08;;;;;;;14.43;9.82;;;;;;;20.90;36.29;99077.03;6274138;22;20074;-74
2021/04/21 06:32:35;;;;;;;11.57;8.00;;;;;;;20.83;34.21;99083.03;6273842;22;19995;-75
2021/04/21 06:35:18;;;;;;;7.68;5.90;;;;;;;20.65;34.12;99082.47;6246903;22;20000;-75
2021/04/21 06:37:46;;;;;;;5.55;4.97;;;;;;;20.68;32.99;99083.72;6273474;22;20003;-75
2021/04/21 06:40:12;;;;;;;4.32;3.92;;;;;;;20.57;32.46;99084.19;6273847;22;20062;-75
2021/04/21 06:42:38;;;;;;;5.68;4.50;;;;;;;20.45;32.76;99082.28;6273431;22;20042;-75
2021/04/21 06:45:04;;;;;;;5.32;4.15;;;;;;;20.40;33.09;99092.59;6274047;22;20006;-75
2021/04/21 06:47:29;;;;;;;5.43;4.55;;;;;;;20.44;33.38;99098.94;6273685;22;20034;-75
2021/04/21 06:50:04;;;;;;;5.28;4.50;;;;;;;20.48;34.06;99105.25;6273517;22;19999;-75
2021/04/21 06:52:38;;;;;;;5.90;4.63;;;;;;;20.51;33.39;99099.16;6273848;22;20363;-75
2021/04/21 06:55:06;;;;;;;7.30;4.65;;;;;;;20.47;33.08;99099.03;6246275;22;20003;-75
2021/04/21 06:57:33;;;;;;;6.47;4.75;;;;;;;20.27;33.51;99103.44;6273646;22;20031;-75
2021/04/21 07:00:19;;;;;;;6.55;4.68;;;;;;;20.20;33.73;99105.16;6274270;22;20003;-74
2021/04/21 07:02:47;;;;;;;5.90;5.20;;;;;;;19.95;33.50;99103.22;6273351;22;20007;-75
2021/04/21 07:05:25;;;;;;;6.50;3.90;;;;;;;19.66;33.46;99104.16;6273896;22;20063;-74
2021/04/21 07:07:58;;;;;;;8.80;6.88;;;;;;;19.40;34.08;99102.50;6273615;22;20004;-75
2021/04/21 07:10:24;;;;;;;10.20;7.10;;;;;;;19.12;34.79;99107.69;6273474;22;20003;-75
2021/04/21 07:12:49;;;;;;;6.82;5.05;;;;;;;18.89;35.35;99110.69;6273053;22;20003;-75
2021/04/21 07:15:16;;;;;;;6.45;5.45;;;;;;;18.78;36.08;99110.28;6273765;22;20063;-75
2021/04/21 07:17:42;;;;;;;6.80;5.63;;;;;;;18.51;35.92;99106.16;6273497;22;20050;-75
2021/04/21 07:20:08;;;;;;;6.18;5.18;;;;;;;18.32;37.14;99118.22;6273566;22;20000;-75
2021/04/21 07:22:34;;;;;;;7.47;4.97;;;;;;;18.23;37.50;99117.44;6273585;22;20007;-75
2021/04/21 07:25:00;;;;;;;7.75;5.82;;;;;;;18.12;38.40;99118.94;6272140;22;20332;-75
2021/04/21 07:27:26;;;;;;;5.55;4.90;;;;;;;18.08;37.30;99122.28;6275923;22;20007;-75
2021/04/21 07:29:51;;;;;;;4.72;4.10;;;;;;;18.03;37.60;99121.69;6275155;22;20007;-75
2021/04/21 07:32:19;;;;;;;4.85;4.40;;;;;;;18.01;37.52;99124.69;6275399;22;20000;-75
2021/04/21 07:35:03;;;;;;;5.78;5.00;;;;;;;18.01;37.62;99127.38;6248363;22;20000;-75
2021/04/21 07:37:39;;;;;;;5.55;4.57;;;;;;;18.00;38.85;99135.84;6275424;22;19999;-75
2021/04/21 07:40:31;;;;;;;7.00;5.45;;;;;;;18.04;39.04;99123.25;6275873;22;20000;-75
2021/04/21 07:43:18;;;;;;;3.80;3.33;;;;;;;18.07;37.62;99130.72;6275469;22;20012;-75
2021/04/21 07:45:46;;;;;;;5.43;3.67;;;;;;;18.05;37.98;99130.25;6275214;22;20424;-75
2021/04/21 07:48:33;;;;;;;8.05;4.03;;;;;;;18.05;38.39;99130.25;6275380;22;20375;-75
2021/04/21 07:51:24;;;;;;;8.98;4.55;;;;;;;17.99;38.22;99135.06;6275414;22;20023;-75
2021/04/21 07:53:50;;;;;;;5.03;4.53;;;;;;;18.03;38.83;99132.50;6234844;22;20070;-75
2021/04/21 07:56:16;;;;;;;5.30;4.50;;;;;;;18.05;38.81;99139.16;6275648;22;20004;-75
2021/04/21 07:58:42;;;;;;;5.47;4.60;;;;;;;18.08;38.05;99130.38;6275368;22;20026;-75
2021/04/21 08:01:08;;;;;;;6.85;4.60;;;;;;;18.07;38.06;99128.00;6275297;22;20006;-75
2021/04/21 08:03:35;;;;;;;4.57;4.05;;;;;;;18.01;39.13;99138.22;6273998;22;19996;-75
2021/04/21 08:06:01;;;;;;;5.00;4.55;;;;;;;18.01;39.88;99134.72;6275476;22;20038;-75
2021/04/21 08:08:28;;;;;;;5.93;4.68;;;;;;;18.02;38.86;99134.41;6275381;22;19996;-75
2021/04/21 08:10:53;;;;;;;5.57;4.78;;;;;;;18.08;40.13;99132.31;6275258;22;20071;-74
2021/04/21 08:13:43;;;;;;;5.07;4.45;;;;;;;18.11;39.69;99136.28;6275281;22;20034;-74
2021/04/21 08:16:32;;;;;;;5.28;4.72;;;;;;;18.16;39.20;99127.97;6275283;22;20386;-74
2021/04/21 08:18:59;;;;;;;4.85;4.35;;;;;;;18.19;38.84;99125.41;6275166;22;20000;-75
2021/04/21 08:21:39;;;;;;;5.22;4.30;;;;;;;18.21;39.16;99123.19;6275529;22;20003;-75
2021/04/21 08:24:07;;;;;;;5.05;4.15;;;;;;;18.24;38.47;99124.44;6275500;22;20006;-75
2021/04/21 08:26:33;;;;;;;5.38;4.55;;;;;;;18.23;38.22;99123.63;6274930;22;20328;-75
2021/04/21 08:28:59;;;;;;;5.10;3.90;;;;;;;18.25;38.75;99120.63;6275223;22;20018;-74
2021/04/21 08:31:26;;;;;;;4.45;4.05;;;;;;;18.20;38.03;99118.88;6274862;22;20022;-74
2021/04/21 08:33:52;;;;;;;5.00;4.30;;;;;;;18.15;38.32;99116.38;6274663;22;20329;-74
2021/04/21 08:36:19;;;;;;;4.85;4.45;;;;;;;18.14;39.39;99114.78;6274625;22;19999;-74
2021/04/21 08:38:47;;;;;;;5.20;4.13;;;;;;;18.14;37.82;99113.97;6274606;22;20057;-74
2021/04/21 08:41:18;;;;;;;4.75;3.92;;;;;;;18.16;38.08;99120.66;6275001;22;20027;-76
2021/04/21 08:43:49;;;;;;;5.70;3.67;;;;;;;18.11;39.35;99123.53;6274614;22;20035;-74
2021/04/21 08:46:16;;;;;;;5.47;4.97;;;;;;;18.13;38.91;99120.53;6273306;22;20000;-74
2021/04/21 08:48:42;;;;;;;5.10;4.65;;;;;;;18.05;39.82;99114.81;6274891;22;20094;-74
2021/04/21 08:51:13;;;;;;;6.18;4.43;;;;;;;18.07;40.29;99117.19;6275079;22;20440;-75
2021/04/21 08:53:40;;;;;;;5.10;4.32;;;;;;;18.00;40.14;99116.91;6274751;22;20003;-74
2021/04/21 08:56:06;;;;;;;6.30;4.47;;;;;;;18.04;40.66;99115.13;6275121;22;20373;-74
2021/04/21 08:58:33;;;;;;;4.03;3.70;;;;;;;18.00;38.60;99106.84;6274986;22;20000;-76
2021/04/21 09:01:00;;;;;;;4.45;4.05;;;;;;;18.01;39.27;99100.31;6273217;22;20336;-76
2021/04/21 09:03:26;;;;;;;5.68;4.57;;;;;;;18.01;37.72;99100.31;6275050;22;20057;-75
2021/04/21 09:05:52;;;;;;;6.63;4.60;;;;;;;17.98;39.50;99092.06;6274729;22;20003;-76
2021/04/21 09:08:21;;;;;;;6.28;4.78;;;;;;;17.96;40.41;99092.41;6274542;22;20012;-76
2021/04/21 09:10:48;;;;;;;6.68;5.43;;;;;;;17.98;40.98;99089.34;6274540;22;20010;-75
2021/04/21 09:13:14;;;;;;;4.80;4.40;;;;;;;17.86;39.92;99080.00;6274943;22;20405;-76
2021/04/21 09:15:42;;;;;;;6.63;5.65;;;;;;;17.77;40.87;99068.41;6273966;22;20034;-75
2021/04/21 09:18:08;;;;;;;6.05;4.90;;;;;;;17.61;39.20;99087.06;6274763;22;19996;-74
2021/04/21 09:20:43;;;;;;;6.35;5.45;;;;;;;17.43;41.34;99081.69;6274690;22;20084;-75
2021/04/21 09:23:18;;;;;;;6.20;4.68;;;;;;;17.39;40.12;99063.72;6274807;22;20003;-76
2021/04/21 09:25:54;;;;;;;4.82;4.43;;;;;;;17.41;40.37;99073.09;6274351;22;20030;-76
2021/04/21 09:28:22;;;;;;;4.65;4.05;;;;;;;17.40;40.24;99068.81;6274706;22;20011;-75
2021/04/21 09:30:53;;;;;;;6.05;4.88;;;;;;;17.42;40.70;99074.69;6274015;22;20003;-75
2021/04/21 09:33:19;;;;;;;5.50;4.82;;;;;;;17.39;40.64;99061.03;6274346;22;20031;-75
2021/04/21 09:35:47;;;;;;;5.63;4.90;;;;;;;17.42;39.81;99061.16;6273965;22;20468;-76
2021/04/21 09:38:24;;;;;;;7.53;4.53;;;;;;;17.44;39.71;99068.97;6274440;22;20000;-75
2021/04/21 09:40:54;;;;;;;5.90;4.75;;;;;;;17.44;40.07;99077.88;6274071;22;20481;-75
2021/04/21 09:43:31;;;;;;;5.75;4.35;;;;;;;17.41;39.95;99078.50;6274339;22;20004;-75
2021/04/21 09:45:59;;;;;;;5.13;4.45;;;;;;;17.47;40.15;99091.84;6272694;22;20004;-75
2021/04/21 09:48:34;;;;;;;5.05;4.40;;;;;;;17.39;39.34;99085.34;6274278;22;20030;-74
2021/04/21 09:51:15;;;;;;;9.13;4.47;;;;;;;17.34;39.58;99094.41;6274155;22;20086;-76
2021/04/21 09:53:43;;;;;;;4.10;3.75;;;;;;;17.31;39.10;99089.66;6274028;22;19995;-74
2021/04/21 09:56:17;;;;;;;4.80;4.40;;;;;;;17.26;39.48;99090.63;6274062;22;20314;-74
2021/04/21 09:58:53;;;;;;;7.75;4.47;;;;;;;17.19;40.03;99090.31;6272592;22;20387;-76
2021/04/21 10:01:25;;;;;;;7.80;5.43;;;;;;;17.14;40.46;99095.88;6274413;22;20030;-75
2021/04/21 10:04:03;;;;;;;5.65;4.80;;;;;;;17.08;40.69;99092.53;6273758;22;20444;-75
2021/04/21 10:06:29;;;;;;;6.85;4.55;;;;;;;17.09;41.20;99093.34;6274018;22;20437;-76
2021/04/21 10:08:54;;;;;;;4.43;4.03;;;;;;;17.06;39.85;99096.66;6273617;22;20026;-75
2021/04/21 10:11:20;;;;;;;5.25;4.43;;;;;;;16.96;39.90;99095.84;6273800;22;20002;-75
2021/04/21 10:13:53;;;;;;;4.78;4.00;;;;;;;16.89;39.22;99103.59;6273417;22;20000;-75
2021/04/21 10:16:20;;;;;;;3.97;3.45;;;;;;;16.83;38.55;99104.88;6274079;22;20086;-76
2021/04/21 10:18:47;;;;;;;4.63;3.80;;;;;;;16.77;38.68;99108.84;6273860;22;20007;-75
2021/04/21 10:21:14;;;;;;;4.32;3.40;;;;;;;16.64;39.58;99108.66;6274148;22;20007;-75
2021/04/21 10:23:43;;;;;;;4.88;3.80;;;;;;;16.49;40.83;99118.00;6272604;22;20018;-76
2021/04/21 10:26:12;;;;;;;6.35;4.30;;;;;;;16.39;41.53;99123.66;6246883;22;19999;-75
2021/04/21 10:28:38;;;;;;;5.18;3.53;;;;;;;16.27;41.13;99129.69;6274231;22;20003;-74
2021/04/21 10:31:06;;;;;;;5.43;3.67;;;;;;;16.19;40.73;99124.25;6273743;22;20094;-74
2021/04/21 10:33:32;;;;;;;;;;;;;;;16.11;41.00;99137.41;6274263;22;20011;-75
2021/04/21 10:35:58;;;;;;;3.67;3.13;;;;;;;16.05;41.12;99133.25;6272287;22;19899;-75
2021/04/21 10:38:25;;;;;;;6.43;4.18;;;;;;;15.96;42.06;99135.09;6273683;22;20026;-75
2021/04/21 10:41:11;;;;;;;5.32;3.85;;;;;;;15.89;42.47;99134.72;6273441;22;20015;-75
2021/04/21 10:43:38;;;;;;;6.07;3.28;;;;;;;15.80;42.36;99140.84;6273341;22;20006;-75
2021/04/21 10:46:04;;;;;;;8.77;4.50;;;;;;;15.73;42.35;99143.16;6273586;22;20019;-75
2021/04/21 10:48:45;;;;;;;4.60;4.18;;;;;;;15.64;42.65;99150.41;6273889;22;20022;-74
2021/04/21 10:51:33;;;;;;;7.07;4.00;;;;;;;15.55;42.43;99153.06;6273783;22;20027;-75
2021/04/21 10:54:08;;;;;;;5.85;3.20;;;;;;;15.44;43.41;99163.28;6273630;22;20078;-75
2021/04/21 10:56:37;;;;;;;4.65;3.70;;;;;;;15.25;44.29;99159.97;6273634;22;20083;-75
2021/04/21 10:59:03;;;;;;;;;;;;;;;15.14;45.75;99170.16;6246804;22;20078;-75
2021/04/21 11:01:36;;;;;;;5.03;4.13;;;;;;;14.96;46.59;99175.38;6246477;22;19903;-76
2021/04/21 11:04:04;;;;;;;6.50;4.15;;;;;;;14.80;47.29;99180.28;6273372;22;20004;-75
2021/04/21 11:06:38;;;;;;;3.95;3.47;;;;;;;14.66;48.07;99184.84;6274015;22;20073;-75
2021/04/21 11:09:08;;;;;;;4.63;3.47;;;;;;;14.56;47.62;99186.66;6273362;22;20003;-75
2021/04/21 11:11:35;;;;;;;4.68;3.47;;;;;;;14.46;48.14;99197.59;6273930;22;20049;-75
2021/04/21 11:14:01;;;;;;;4.82;4.38;;;;;;;14.41;49.33;99197.69;6273586;22;20007;-75
2021/04/21 11:16:29;;;;;;;4.63;3.78;;;;;;;14.36;50.48;99195.09;6273952;22;19999;-75
2021/04/21 11:19:14;;;;;;;4.57;3.92;;;;;;;14.30;49.44;99207.03;6273302;22;19996;-75
2021/04/21 11:21:40;;;;;;;4.32;3.38;;;;;;;14.24;48.81;99193.69;6273657;22;20042;-74
2021/04/21 11:24:05;;;;;;;2.97;2.55;;;;;;;14.22;47.54;99189.69;6273674;22;20000;-74
2021/04/21 11:26:32;;;;;;;3.38;2.88;;;;;;;14.17;46.97;99187.09;6273644;22;20129;-74
2021/04/21 11:29:19;;;;;;;1.95;1.75;;;;;;;14.15;45.44;99198.16;6273557;22;19996;-74
2021/04/21 11:31:45;;;;;;;3.28;2.65;;;;;;;14.13;50.31;99194.94;6273198;22;19995;-74
2021/04/21 11:34:24;;;;;;;3.75;3.28;;;;;;;14.08;52.02;99197.72;6273824;22;20000;-74
2021/04/21 11:37:06;;;;;;;10.05;6.13;;;;;;;13.99;52.39;99178.78;6273227;22;20022;-74
2021/04/21 11:42:31;;;;;;;5.70;4.45;;;;;;;13.80;53.95;99145.78;6273466;22;20034;-74
2021/04/21 11:45:11;;;;;;;7.32;4.70;;;;;;;13.75;55.29;99146.66;6273573;22;20003;-74
2021/04/21 11:47:44;;;;;;;7.40;5.30;;;;;;;13.68;55.02;99146.25;6273760;22;20306;-73
2021/04/21 11:50:21;;;;;;;6.45;5.03;;;;;;;13.64;54.84;99148.72;6273425;22;19999;-74
2021/04/21 11:52:53;;;;;;;10.05;6.47;;;;;;;13.66;55.06;99137.66;6273462;22;19996;-76
2021/04/21 11:55:27;;;;;;;7.18;4.93;;;;;;;13.65;54.65;99133.41;6273827;22;19996;-74
2021/04/21 11:58:23;;;;;;;7.15;5.75;;;;;;;13.69;54.76;99126.34;6273441;22;19996;-74
2021/04/21 12:01:17;;;;;;;8.02;6.47;;;;;;;13.73;55.34;99125.47;6273472;22;20000;-74
2021/04/21 12:03:44;;;;;;;8.60;6.43;;;;;;;13.85;55.89;99124.97;6273769;22;20000;-74